Latest Weather Observations for Jandakot

IDW60901

Issued at 9:45 pm WST Tuesday 30 September 2014 (issued every 10 minutes, with the page automatically refreshed every 10 minutes)

About weather observations | Map of Perth area stations | Latest observations for Perth area | Other Formats
Station Details ID: 009172 Name: JANDAKOT AERO Lat: -32.10 Lon: 115.88 Height: 30.0 m
Data from the previous 72 hours. | See also: Recent months at Jandakot
Date/Time
WST
Tmp

°C
App
Tmp
°C
Dew
Point
°C
Rel
Hum
%
Delta-T

°C
Wind Press
QNH
hPa
Press
MSL
hPa
Rain
since
9 am
mm
Dir
 
Spd
km/h
Gust
km/h
Spd
kts
Gust
kts
30/09:30pm 13.0 11.6 10.9 87 1.1 SSE 9 11 5 6 1021.9 1021.9 0.0
30/09:00pm 13.7 12.1 11.6 87 1.1 SSE 11 11 6 6 1021.9 1021.9 0.0
30/08:30pm 13.8 12.3 11.9 88 1.0 SSE 11 13 6 7 1021.9 1021.9 0.0
30/08:00pm 14.8 13.4 12.2 84 1.4 SSE 11 11 6 6 1021.7 1021.7 0.0
30/07:30pm 16.1 15.3 12.8 81 1.8 S 9 11 5 6 1021.5 1021.5 0.0
30/07:00pm 17.0 15.4 12.9 77 2.3 S 13 15 7 8 1021.2 1021.2 0.0
30/06:30pm 17.7 16.5 12.9 73 2.7 SSW 11 13 6 7 1020.9 1020.9 0.0
30/06:00pm 18.9 17.3 12.8 67 3.4 SSW 13 17 7 9 1020.7 1020.7 0.0
30/05:30pm 19.8 17.4 12.5 62 4.1 SSW 17 20 9 11 1020.7 1020.7 0.0
30/05:00pm 20.4 17.5 12.4 60 4.5 SW 19 24 10 13 1020.6 1020.6 0.0
30/04:30pm 20.7 17.6 12.3 58 4.7 SW 20 24 11 13 1020.6 1020.6 0.0
30/04:00pm 21.0 17.7 12.7 59 4.7 W 22 26 12 14 1020.7 1020.7 0.0
30/03:30pm 21.6 18.2 12.4 55 5.2 WSW 22 30 12 16 1020.5 1020.5 0.0
30/03:00pm 21.8 19.1 11.8 53 5.6 SW 17 24 9 13 1020.5 1020.5 0.0
30/02:30pm 21.7 19.1 11.9 53 5.5 W 17 24 9 13 1020.7 1020.7 0.0
30/02:00pm 22.6 20.2 10.1 45 6.8 ESE 13 24 7 13 1020.9 1020.9 0.0
30/01:30pm 21.7 20.3 9.6 46 6.5 SE 7 15 4 8 1021.3 1021.3 0.0
30/01:00pm 21.5 20.0 10.5 49 6.0 ENE 9 17 5 9 1021.8 1021.8 0.0
30/12:30pm 20.7 19.4 9.9 50 5.8 NNE 7 13 4 7 1022.3 1022.3 0.0
30/12:00pm 19.8 18.9 9.2 50 5.6 NE 4 13 2 7 1022.6 1022.6 0.0
30/11:30am 19.5 18.1 9.5 52 5.3 S 7 13 4 7 1023.1 1023.1 0.0
30/11:00am 18.5 15.8 8.9 53 5.0 E 13 22 7 12 1023.3 1023.3 0.0
30/10:30am 18.6 15.3 9.5 55 4.8 ENE 17 22 9 12 1023.6 1023.6 0.0
30/10:00am 17.2 14.8 8.8 57 4.3 ESE 11 15 6 8 1023.9 1023.9 0.0
30/09:30am 16.7 13.9 8.7 59 4.1 SE 13 22 7 12 1023.9 1023.9 0.0
30/09:00am 16.6 13.2 9.0 61 3.9 SE 17 22 9 12 1024.0 1024.0 0.2
30/08:30am 15.8 13.1 10.3 70 2.9 E 15 20 8 11 1023.8 1023.8 0.2
30/08:00am 14.8 12.8 10.2 74 2.4 E 11 15 6 8 1023.8 1023.8 0.2
30/07:30am 14.1 11.8 10.5 79 1.9 ESE 13 17 7 9 1023.6 1023.6 0.2
30/07:00am 12.9 10.7 10.8 87 1.1 E 13 15 7 8 1023.3 1023.3 0.2
30/06:30am 12.3 11.3 11.0 92 0.7 E 7 9 4 5 1023.0 1023.0 0.2
30/06:00am 12.1 11.2 10.7 91 0.7 SE 6 7 3 4 1022.7 1022.7 0.2
30/05:30am 12.1 10.5 10.3 89 0.9 SSE 9 9 5 5 1022.5 1022.5 0.2
30/05:00am 11.8 10.8 10.2 90 0.8 SSE 6 7 3 4 1022.2 1022.2 0.2
30/04:30am 11.4 10.3 10.0 91 0.7 SSE 6 7 3 4 1022.0 1022.0 0.2
30/04:00am 11.3 11.5 10.5 95 0.4 CALM 0 0 0 0 1021.6 1021.6 0.2
30/03:30am 10.8 10.8 9.8 93 0.5 CALM 0 0 0 0 1021.4 1021.4 0.2
30/03:00am 11.5 11.7 10.5 94 0.5 CALM 0 0 0 0 1021.3 1021.3 0.2
30/02:30am 12.1 12.4 10.9 92 0.6 CALM 0 0 0 0 1021.1 1021.1 0.2
30/02:00am 11.3 9.7 10.3 94 0.5 ENE 9 9 5 5 1021.0 1021.0 0.2
30/01:30am 11.2 11.3 10.0 92 0.6 CALM 0 0 0 0 1021.0 1021.0 0.2
30/01:00am 11.9 10.9 10.3 90 0.8 S 6 7 3 4 1020.9 1020.9 0.2
30/12:30am 11.9 11.0 10.7 92 0.6 SSE 6 9 3 5 1021.0 1021.0 0.2
30/12:00am 11.1 11.1 9.7 91 0.7 SSE 0 7 0 4 1021.3 1021.3 0.2
 
Date/Time
WST
Tmp

°C
App
Tmp
°C
Dew
Point
°C
Rel
Hum
%
Delta-T

°C
Wind Press
QNH
hPa
Press
MSL
hPa
Rain
since
9 am
mm
Dir
 
Spd
km/h
Gust
km/h
Spd
kts
Gust
kts
29/11:30pm 10.7 9.4 9.1 90 0.8 SSE 6 7 3 4 1021.2 1021.2 0.2
29/11:00pm 13.1 12.0 10.0 81 1.6 S 6 7 3 4 1021.3 1021.3 0.2
29/10:30pm 14.8 13.5 9.8 72 2.6 S 7 9 4 5 1021.5 1021.5 0.2
29/10:00pm 15.8 14.1 9.8 67 3.1 S 9 13 5 7 1021.7 1021.7 0.2
29/09:30pm 15.9 14.3 10.2 69 3.0 S 9 15 5 8 1021.7 1021.7 0.2
29/09:00pm 15.9 15.0 11.4 74 2.4 S 7 9 4 5 1021.5 1021.5 0.2
29/08:30pm 16.2 14.6 11.4 73 2.6 SSW 11 20 6 11 1021.3 1021.3 0.2
29/08:00pm 16.1 14.1 11.5 74 2.5 SSW 13 20 7 11 1021.1 1021.1 0.2
29/07:30pm 15.9 14.7 11.6 75 2.3 S 9 11 5 6 1020.6 1020.6 0.2
29/07:00pm 16.1 14.7 11.0 72 2.7 SSW 9 13 5 7 1020.0 1020.0 0.2
29/06:30pm 16.9 14.8 11.3 69 3.0 SSW 13 17 7 9 1019.7 1019.7 0.2
29/06:00pm 17.0 14.9 11.3 69 3.1 SSW 13 20 7 11 1019.7 1019.7 0.2
29/05:30pm 16.5 15.8 13.3 81 1.8 SW 9 13 5 7 1019.4 1019.4 0.2
29/05:00pm 17.2 14.4 12.7 75 2.5 SW 19 26 10 14 1019.1 1019.1 0.2
29/04:30pm 17.7 14.8 12.9 73 2.7 WSW 20 30 11 16 1018.6 1018.6 0.2
29/04:00pm 18.2 15.3 13.0 71 2.9 SW 20 26 11 14 1018.4 1018.4 0.2
29/03:30pm 18.6 16.5 13.7 73 2.8 SW 17 24 9 13 1018.2 1018.2 0.2
29/03:00pm 18.3 15.5 13.2 72 2.9 SW 20 26 11 14 1017.9 1017.9 0.2
29/02:30pm 19.8 17.2 13.1 65 3.8 SW 19 28 10 15 1017.4 1017.4 0.2
29/02:00pm 19.6 16.8 13.1 66 3.7 W 20 30 11 16 1017.5 1017.5 0.0
29/01:30pm 19.1 16.2 14.1 73 2.9 WSW 22 30 12 16 1017.9 1017.9 0.0
29/01:27pm 18.6 16.1 14.1 75 2.6 WSW 20 30 11 16 1018.0 1018.0 0.0
29/01:13pm 17.6 15.0 15.0 85 1.5 WSW 22 35 12 19 1018.1 1018.1 0.0
29/01:00pm 19.9 17.2 13.4 66 3.7 WSW 20 28 11 15 1017.8 1017.8 0.0
29/12:30pm 19.4 15.4 11.8 61 4.2 W 24 35 13 19 1017.8 1017.8 0.0
29/12:00pm 19.4 16.8 15.0 75 2.6 SW 22 26 12 14 1018.1 1018.1 0.0
29/11:30am 20.0 16.5 12.3 61 4.3 WSW 22 32 12 17 1018.1 1018.1 0.0
29/11:00am 20.1 15.2 11.4 57 4.8 WSW 28 35 15 19 1018.0 1018.0 0.0
29/10:30am 19.9 15.6 12.0 60 4.4 W 26 35 14 19 1017.9 1017.9 0.0
29/10:00am 19.2 16.2 12.4 64 3.8 W 20 35 11 19 1017.9 1017.9 0.0
29/09:30am 17.7 14.3 13.6 77 2.3 W 24 32 13 17 1017.9 1017.9 0.0
29/09:00am 18.5 15.8 13.4 72 2.9 W 20 28 11 15 1017.7 1017.7 2.4
29/08:30am 17.7 16.6 14.4 81 1.9 NW 13 19 7 10 1017.5 1017.5 2.4
29/08:00am 16.1 15.4 14.3 89 1.0 NW 11 15 6 8 1017.4 1017.4 2.4
29/07:30am 14.7 13.6 14.3 97 0.2 NNE 13 17 7 9 1017.0 1017.0 2.4
29/07:00am 13.8 13.2 13.4 97 0.2 NE 9 13 5 7 1016.6 1016.6 2.4
29/06:30am 13.3 13.5 12.9 97 0.2 ENE 4 9 2 5 1016.6 1016.6 2.4
29/06:00am 12.7 11.3 12.3 97 0.2 NE 11 13 6 7 1016.0 1016.0 2.0
29/05:30am 12.8 11.0 12.2 96 0.3 NNE 13 13 7 7 1015.8 1015.8 2.0
29/05:00am 14.3 15.3 13.2 93 0.6 CALM 0 4 0 2 1015.8 1015.8 2.0
29/04:30am 14.6 13.1 13.2 91 0.8 NW 13 15 7 8 1015.5 1015.5 2.0
29/04:00am 14.9 12.4 13.6 92 0.7 WNW 19 24 10 13 1015.6 1015.6 2.0
29/03:30am 14.5 12.6 12.9 90 0.9 WNW 15 20 8 11 1015.7 1015.7 0.8
29/03:00am 13.5 12.7 13.0 97 0.3 E 9 15 5 8 1015.9 1015.9 0.8
29/02:30am 12.8 12.4 12.4 97 0.2 NNE 6 13 3 7 1016.0 1016.0 0.8
29/02:00am 11.8 10.2 11.4 97 0.2 NNE 11 13 6 7 1016.0 1016.0 0.8
29/01:30am 11.7 10.4 11.1 96 0.3 NNE 9 11 5 6 1016.2 1016.2 0.8
29/01:00am 11.3 9.8 10.7 96 0.3 NNE 9 11 5 6 1016.3 1016.3 0.8
29/12:30am 12.5 11.7 11.7 95 0.4 NNE 7 9 4 5 1016.5 1016.5 0.8
29/12:00am 13.1 12.0 12.0 93 0.6 N 9 11 5 6 1016.6 1016.6 0.8
 
Date/Time
WST
Tmp

°C
App
Tmp
°C
Dew
Point
°C
Rel
Hum
%
Delta-T

°C
Wind Press
QNH
hPa
Press
MSL
hPa
Rain
since
9 am
mm
Dir
 
Spd
km/h
Gust
km/h
Spd
kts
Gust
kts
28/11:30pm 13.4 11.7 12.3 93 0.6 NNE 13 15 7 8 1016.7 1016.7 0.8
28/11:00pm 13.0 12.0 11.1 88 1.0 NNW 7 9 4 5 1016.9 1016.9 0.8
28/10:30pm 14.7 14.0 11.9 83 1.5 NW 7 9 4 5 1017.0 1017.0 0.8
28/10:00pm 14.8 13.3 11.8 82 1.6 WNW 11 15 6 8 1017.4 1017.4 0.8
28/09:30pm 15.2 13.3 11.9 81 1.8 WNW 13 17 7 9 1017.5 1017.5 0.8
28/09:00pm 15.3 13.5 12.0 81 1.8 NW 13 17 7 9 1017.7 1017.7 0.8
28/08:30pm 15.6 13.7 11.7 77 2.1 WNW 13 15 7 8 1017.7 1017.7 0.8
28/08:00pm 15.5 13.4 11.2 75 2.3 WNW 13 17 7 9 1017.7 1017.7 0.8
28/07:30pm 15.4 13.8 11.7 78 2.0 NW 11 15 6 8 1017.5 1017.5 0.8
28/07:00pm 15.8 13.5 11.7 76 2.2 WNW 15 20 8 11 1017.3 1017.3 0.8
28/06:30pm 15.8 13.4 11.5 75 2.3 WNW 15 20 8 11 1017.2 1017.2 0.8
28/06:00pm 16.6 13.2 11.2 70 2.9 WNW 20 22 11 12 1017.1 1017.1 0.8
28/05:30pm 17.1 14.3 12.6 75 2.5 W 19 28 10 15 1017.1 1017.1 0.8
28/05:00pm 16.9 13.2 11.6 71 2.9 W 22 28 12 15 1017.1 1017.1 0.8
28/04:30pm 17.6 13.1 11.3 66 3.4 WNW 26 32 14 17 1016.9 1016.9 0.8
28/04:00pm 18.5 13.6 10.0 57 4.5 W 26 33 14 18 1016.8 1016.8 0.8
28/03:30pm 19.0 13.4 11.5 61 4.1 WNW 32 37 17 20 1016.8 1016.8 0.8
28/03:00pm 19.0 14.1 11.3 61 4.2 W 28 35 15 19 1016.6 1016.6 0.8
28/02:30pm 19.2 14.3 11.3 60 4.3 WNW 28 35 15 19 1016.6 1016.6 0.8
28/02:00pm 16.8 13.9 12.8 77 2.2 W 20 32 11 17 1016.8 1016.8 0.8
28/01:30pm 18.0 13.0 12.2 69 3.2 W 30 41 16 22 1016.8 1016.8 0.8
28/01:00pm 18.7 15.3 11.2 61 4.1 W 20 28 11 15 1016.8 1016.8 0.6
28/12:30pm 19.4 14.8 10.9 58 4.6 WNW 26 35 14 19 1016.8 1016.8 0.6
28/12:00pm 19.3 14.4 11.3 60 4.4 W 28 35 15 19 1017.0 1017.0 0.6
28/11:30am 17.9 15.0 12.9 72 2.8 WNW 20 30 11 16 1017.2 1017.2 0.6
28/11:00am 18.0 12.5 10.7 62 3.9 W 30 33 16 18 1017.1 1017.1 0.6
28/10:30am 18.4 14.9 13.5 73 2.8 WNW 24 30 13 16 1017.1 1017.1 0.6
28/10:00am 16.4 12.6 12.4 77 2.2 W 24 37 13 20 1017.2 1017.2 0.2
28/09:30am 17.8 13.0 11.6 67 3.4 W 28 37 15 20 1016.9 1016.9 0.0
28/09:00am 16.5 14.3 13.3 81 1.8 NW 17 20 9 11 1016.8 1016.8 10.8
28/08:30am 15.0 12.3 13.0 88 1.1 W 19 24 10 13 1016.9 1016.9 10.8
28/08:00am 14.9 12.5 12.5 85 1.3 W 17 22 9 12 1016.5 1016.5 10.6
28/07:30am 15.4 12.3 11.5 77 2.1 WSW 19 26 10 14 1016.3 1016.3 10.4
28/07:00am 15.5 11.2 10.6 72 2.6 WNW 24 30 13 16 1015.9 1015.9 10.4
28/06:30am 15.6 11.0 9.6 67 3.1 W 24 39 13 21 1015.5 1015.5 10.4
28/06:15am 15.7 8.8 8.9 64 3.5 WSW 35 44 19 24 1015.5 1015.5 10.4
28/06:00am 15.4 11.9 8.9 65 3.3 W 17 24 9 13 1015.3 1015.3 10.4
28/05:30am 15.3 11.0 9.3 67 3.1 W 22 28 12 15 1015.1 1015.1 10.4
28/05:10am 15.2 9.8 9.4 68 3.0 WSW 28 46 15 25 1015.0 1015.0 10.4
28/05:00am 14.8 11.8 10.8 77 2.1 WSW 17 28 9 15 1014.9 1014.9 10.4
28/04:30am 15.1 11.4 10.3 73 2.5 WSW 20 37 11 20 1014.9 1014.9 10.2
28/04:00am 14.5 10.7 9.9 74 2.4 W 20 39 11 21 1014.8 1014.8 10.2
28/03:30am 15.4 10.0 9.4 67 3.1 WSW 28 46 15 25 1014.7 1014.7 10.2
28/03:29am 15.5 10.0 9.1 65 3.3 WSW 28 46 15 25 1014.6 1014.6 10.2
28/03:00am 14.5 10.7 9.9 74 2.4 WSW 20 30 11 16 1014.5 1014.5 10.2
28/02:30am 14.7 9.6 10.7 77 2.1 SW 28 39 15 21 1014.7 1014.7 10.2
28/02:00am 15.6 11.2 7.6 59 4.0 W 20 30 11 16 1014.6 1014.6 10.0
28/01:30am 15.4 10.4 8.0 61 3.7 W 24 30 13 16 1014.7 1014.7 10.0
28/01:00am 14.5 10.2 9.4 71 2.6 W 22 33 12 18 1014.8 1014.8 10.0
28/12:30am 15.6 10.5 7.8 59 3.9 W 24 35 13 19 1014.8 1014.8 10.0
28/12:00am 15.5 9.6 5.9 52 4.6 WSW 26 32 14 17 1014.8 1014.8 10.0
 
Date/Time
WST
Tmp

°C
App
Tmp
°C
Dew
Point
°C
Rel
Hum
%
Delta-T

°C
Wind Press
QNH
hPa
Press
MSL
hPa
Rain
since
9 am
mm
Dir
 
Spd
km/h
Gust
km/h
Spd
kts
Gust
kts
27/11:30pm 14.9 10.0 8.3 64 3.3 WSW 24 35 13 19 1014.9 1014.9 10.0
27/11:00pm 14.3 10.5 9.2 71 2.6 SW 19 28 10 15 1014.8 1014.8 10.0
27/10:30pm 15.5 10.6 8.4 62 3.6 WSW 24 30 13 16 1014.8 1014.8 9.8
27/10:00pm 15.6 11.3 6.8 56 4.3 WSW 19 30 10 16 1014.8 1014.8 9.8

Latest Capital City Observations: Canberra | Sydney | Melbourne | Brisbane | Adelaide | Perth | Hobart | Darwin

Other Formats:

Comma delimited format used in spreadsheet applications
http://www.bom.gov.au/fwo/IDW60901/IDW60901.94609.axf

JavaScript Object Notation format (JSON) in row-major order
http://www.bom.gov.au/fwo/IDW60901/IDW60901.94609.json